Main page
METAR-TAF:

Airports :

Ljubljana, Slovenia

Ljubljana Jože Pučnik Airport

latitude: 46-13N, longitude: 014-29E, elevation: 385 m

Current weather observation

The report was made 24 minutes ago, at 00:00 UTC
Wind 1 kt from variable directions
Temperature 15°C
Humidity 88%
Pressure 1023 hPa
Visibility 10 km or more
Few clouds at a height of 5700 ft

METAR: LJLJ 310000Z VRB01KT 9999 FEW057 15/13 Q1023 NOSIG

Time: 02:24 (00:24 UTC)

Forecast

The report was made 1 hour and 24 minutes ago, at 23:00 UTC
Forecast valid from 31 at 00 UTC to 31 at 24 UTC
Wind 3 kt from the West/Northwest
Visibility 10 km or more
Few clouds at a height of 6000 ft
Becoming
from 31 at 08 UTC to 31 at 09 UTC
Wind 5 kt from the East/Southeast
Becoming
from 31 at 17 UTC to 31 at 18 UTC
Wind 3 kt from the West/Northwest
Visibility 10 km or more
no clouds below 1500 m and no cumulonimbus

TAF: LJLJ 302300Z 3100/3124 30003KT 9999 FEW060 BECMG 3108/3109 12005KT BECMG 3117/3118 30003KT CAVOK

METAR-TAF

Weather observations and forecasts of more than 4000 airports (METAR and TAF reports).

The available stations are represented by yellow and red dots on the map.

Hover mouse over dot to see the name of the station.

Then click to see weather observations and forecasts.

To change the map : click on the green buttons with a black cross to zoom in, on the green button with a dash to zoom out, or on the green arrows for adjacent maps.


METAR-TAF: